Time;durP1;ratioP1;P1;durP2;ratioP2;P2;SDS_P1;SDS_P2;PMS_P1;PMS_P2;Temp;Humidity;BMP_temperature;BMP_pressure;BME280_temperature;BME280_humidity;BME280_pressure;Samples;Min_cycle;Max_cycle;Signal;HPM_P1;HPM_P2
2023/09/10 00:00:18;;;;;;;5.80;4.35;;;;;;;23.03;100.00;100239.59;5005868;28;20076;-74
2023/09/10 00:02:44;;;;;;;7.55;4.32;;;;;;;23.02;100.00;100237.19;5029147;28;20033;-74
2023/09/10 00:05:09;;;;;;;4.45;4.05;;;;;;;23.01;100.00;100241.19;5052681;28;20030;-74
2023/09/10 00:07:35;;;;;;;4.93;4.10;;;;;;;23.01;100.00;100230.69;5029300;28;20029;-74
2023/09/10 00:10:00;;;;;;;8.05;4.68;;;;;;;22.97;100.00;100224.97;5005957;28;20041;-74
2023/09/10 00:12:26;;;;;;;5.20;4.25;;;;;;;22.95;100.00;100232.19;5047072;28;20036;-74
2023/09/10 00:14:51;;;;;;;5.07;4.32;;;;;;;22.96;100.00;100234.69;5026338;28;20040;-74
2023/09/10 00:17:17;;;;;;;4.78;4.32;;;;;;;22.94;100.00;100225.72;5021360;28;20036;-73
2023/09/10 00:19:42;;;;;;;5.18;4.50;;;;;;;22.93;100.00;100223.28;5055734;28;20029;-74
2023/09/10 00:22:07;;;;;;;6.28;4.75;;;;;;;22.88;100.00;100220.78;5049593;28;20033;-74
2023/09/10 00:24:33;;;;;;;7.72;4.57;;;;;;;22.87;100.00;100231.31;5035025;28;20033;-74
2023/09/10 00:26:58;;;;;;;5.88;4.60;;;;;;;22.88;100.00;100224.44;5021495;28;20049;-74
2023/09/10 00:29:24;;;;;;;6.72;4.28;;;;;;;22.89;100.00;100240.22;5034690;28;20024;-74
2023/09/10 00:31:49;;;;;;;7.55;4.88;;;;;;;22.84;100.00;100237.72;5021212;28;20029;-74
2023/09/10 00:34:15;;;;;;;4.57;4.00;;;;;;;22.79;100.00;100240.91;5048947;28;20041;-74
2023/09/10 00:36:40;;;;;;;5.32;4.18;;;;;;;22.78;100.00;100244.91;5049312;28;20025;-74
2023/09/10 00:39:05;;;;;;;5.53;4.45;;;;;;;22.76;100.00;100244.47;5018323;28;20041;-74
2023/09/10 00:41:31;;;;;;;7.32;5.18;;;;;;;22.73;100.00;100246.09;5032674;28;20034;-74
2023/09/10 00:43:56;;;;;;;6.45;4.72;;;;;;;22.70;100.00;100252.47;5018306;28;20033;-73
2023/09/10 00:46:22;;;;;;;5.78;4.60;;;;;;;22.69;100.00;100247.22;5048901;28;20678;-74
2023/09/10 00:48:47;;;;;;;5.57;4.00;;;;;;;22.69;100.00;100253.69;5030009;28;20025;-74
2023/09/10 00:51:13;;;;;;;7.05;4.85;;;;;;;22.65;100.00;100254.84;5016070;28;20025;-74
2023/09/10 00:53:39;;;;;;;6.53;4.38;;;;;;;22.66;100.00;100262.16;5018695;28;20029;-74
2023/09/10 00:56:04;;;;;;;6.63;4.68;;;;;;;22.64;100.00;100256.03;5004663;28;20037;-74
2023/09/10 00:58:30;;;;;;;5.75;4.60;;;;;;;22.63;100.00;100249.56;5050920;28;20028;-74
2023/09/10 01:00:55;;;;;;;6.57;4.65;;;;;;;22.58;100.00;100252.72;5052335;28;20033;-74
2023/09/10 01:03:21;;;;;;;6.43;4.80;;;;;;;22.60;100.00;100260.84;5025462;28;20076;-74
2023/09/10 01:05:46;;;;;;;6.40;4.63;;;;;;;22.60;100.00;100263.69;5029133;28;20029;-74
2023/09/10 01:08:12;;;;;;;6.22;4.85;;;;;;;22.59;100.00;100270.50;5025915;28;20029;-74
2023/09/10 01:11:05;;;;;;;5.72;4.82;;;;;;;22.58;100.00;100272.53;5022670;28;20385;-74
2023/09/10 01:13:33;;;;;;;;;;;;;;;22.58;100.00;100278.19;5040975;28;20032;-74
2023/09/10 01:16:02;;;;;;;6.95;4.78;;;;;;;22.58;100.00;100280.22;5046587;28;20004;-74
2023/09/10 01:18:32;;;;;;;8.20;4.72;;;;;;;22.57;100.00;100267.28;5021163;28;20045;-74
2023/09/10 01:21:25;;;;;;;6.03;4.50;;;;;;;22.57;100.00;100250.28;5032568;28;20088;-74
2023/09/10 01:23:56;;;;;;;5.32;4.43;;;;;;;22.58;100.00;100249.09;5056972;28;20033;-74
2023/09/10 01:26:22;;;;;;;5.97;4.50;;;;;;;22.60;100.00;100255.19;5041326;28;20080;-74
2023/09/10 01:28:47;;;;;;;5.80;5.18;;;;;;;22.64;100.00;100258.88;5020392;28;20030;-74
2023/09/10 01:31:13;;;;;;;6.63;4.68;;;;;;;22.63;100.00;100240.28;5036691;28;20037;-74
2023/09/10 01:33:40;;;;;;;5.93;5.07;;;;;;;22.59;100.00;100228.88;5021659;28;20053;-73
2023/09/10 01:36:10;;;;;;;5.43;4.55;;;;;;;22.62;100.00;100236.63;5005180;28;20037;-74
2023/09/10 01:38:44;;;;;;;6.90;5.05;;;;;;;22.62;100.00;100235.78;5012326;28;20108;-74
2023/09/10 01:41:14;;;;;;;6.43;4.80;;;;;;;22.62;100.00;100230.13;5036207;28;20033;-74
2023/09/10 01:43:40;;;;;;;7.15;5.10;;;;;;;22.62;100.00;100227.28;5026840;28;20151;-74
2023/09/10 01:46:05;;;;;;;5.93;4.80;;;;;;;22.62;100.00;100224.47;5027225;28;20029;-74
2023/09/10 01:48:31;;;;;;;6.53;4.93;;;;;;;22.58;100.00;100234.94;5019987;28;20223;-74
2023/09/10 01:50:57;;;;;;;7.43;5.10;;;;;;;22.57;100.00;100236.16;5033034;28;20045;-74
2023/09/10 01:53:22;;;;;;;6.38;5.10;;;;;;;22.53;100.00;100236.88;5036674;28;20033;-74
2023/09/10 01:55:48;;;;;;;6.93;4.90;;;;;;;22.49;100.00;100229.56;5056224;28;20493;-74
2023/09/10 01:58:13;;;;;;;5.03;4.53;;;;;;;;;;5009698;28;20038;-74
2023/09/10 02:00:42;;;;;;;7.50;5.55;;;;;;;22.47;100.00;100229.94;5019952;28;20095;-74
2023/09/10 02:03:07;;;;;;;8.13;5.80;;;;;;;22.46;100.00;100217.00;5019703;28;20041;-73
2023/09/10 02:05:33;;;;;;;11.45;5.70;;;;;;;22.41;100.00;100214.47;5019976;28;20033;-73
2023/09/10 02:07:58;;;;;;;12.13;5.30;;;;;;;22.38;100.00;100206.75;4987092;28;20041;-73
2023/09/10 02:10:24;;;;;;;11.60;5.55;;;;;;;22.35;100.00;100213.19;5037246;28;20029;-73
2023/09/10 02:12:49;;;;;;;9.95;5.70;;;;;;;22.33;100.00;100212.75;5031703;28;20033;-73
2023/09/10 02:15:16;;;;;;;9.25;5.50;;;;;;;22.33;100.00;100215.56;5021203;28;20064;-73
2023/09/10 02:17:42;;;;;;;7.72;5.50;;;;;;;22.30;100.00;100219.16;5020233;28;20030;-73
2023/09/10 02:20:10;;;;;;;7.38;5.43;;;;;;;22.26;100.00;100221.13;5032866;28;20029;-73
2023/09/10 02:22:37;;;;;;;6.70;5.38;;;;;;;22.22;100.00;100206.09;5032746;28;20033;-74
2023/09/10 02:25:03;;;;;;;9.23;5.50;;;;;;;22.22;100.00;100203.28;5020155;28;20071;-73
2023/09/10 02:27:30;;;;;;;8.75;5.82;;;;;;;22.20;100.00;100209.31;5003656;28;20482;-73
2023/09/10 02:29:56;;;;;;;10.65;5.85;;;;;;;22.18;100.00;100211.72;5020669;28;20029;-73
2023/09/10 02:32:22;;;;;;;7.28;5.80;;;;;;;22.16;100.00;100208.41;5036464;28;20064;-74
2023/09/10 02:34:47;;;;;;;6.47;5.78;;;;;;;22.14;100.00;100210.00;5054271;28;20120;-73
2023/09/10 02:37:14;;;;;;;6.85;5.63;;;;;;;22.12;100.00;100209.53;5047005;28;20025;-73
2023/09/10 02:39:39;;;;;;;8.10;5.90;;;;;;;22.05;100.00;100210.25;5046913;28;20090;-73
2023/09/10 02:42:05;;;;;;;6.95;5.20;;;;;;;22.06;100.00;100214.72;5040265;28;20029;-73
2023/09/10 02:44:30;;;;;;;9.68;6.05;;;;;;;22.05;100.00;100211.06;5050230;28;20031;-73
2023/09/10 02:46:56;;;;;;;7.18;5.60;;;;;;;22.01;100.00;100201.72;5065941;28;20473;-73
2023/09/10 02:49:21;;;;;;;8.88;5.45;;;;;;;22.00;100.00;100200.06;5026648;28;20028;-73
2023/09/10 02:51:48;;;;;;;7.53;5.50;;;;;;;21.98;100.00;100198.81;5026688;28;20114;-73
2023/09/10 02:54:15;;;;;;;7.07;5.40;;;;;;;21.93;100.00;100191.50;5040046;28;20052;-73
2023/09/10 02:56:40;;;;;;;6.22;5.43;;;;;;;21.93;100.00;100196.34;5017134;28;20030;-73
2023/09/10 02:59:06;;;;;;;6.18;5.28;;;;;;;21.91;100.00;100187.41;5027165;28;20505;-73
2023/09/10 03:01:31;;;;;;;6.93;5.63;;;;;;;21.92;100.00;100187.03;5059149;28;20029;-73
2023/09/10 03:03:57;;;;;;;8.07;5.90;;;;;;;21.89;100.00;100179.28;5019352;28;20029;-73
2023/09/10 03:06:22;;;;;;;7.05;5.60;;;;;;;21.87;100.00;100176.06;5039823;28;20551;-73
2023/09/10 03:08:48;;;;;;;8.55;5.93;;;;;;;21.83;100.00;100180.81;5059299;28;20025;-73
2023/09/10 03:11:14;;;;;;;5.78;5.22;;;;;;;21.82;100.00;100182.03;5047257;28;20033;-73
2023/09/10 03:13:39;;;;;;;6.38;5.30;;;;;;;21.80;100.00;100178.75;5003135;28;20083;-73
2023/09/10 03:16:05;;;;;;;9.32;5.72;;;;;;;21.78;100.00;100178.31;5023057;28;20030;-73
2023/09/10 03:18:30;;;;;;;8.25;6.05;;;;;;;21.78;100.00;100175.47;5037516;28;20091;-73
2023/09/10 03:20:55;;;;;;;8.27;5.80;;;;;;;21.77;100.00;100190.81;5031690;28;20029;-74
2023/09/10 03:23:21;;;;;;;8.20;5.57;;;;;;;21.78;100.00;100215.06;5044902;28;20067;-73
2023/09/10 03:25:47;;;;;;;7.80;5.90;;;;;;;21.76;100.00;100235.22;5030569;28;20124;-73
2023/09/10 03:28:12;;;;;;;6.30;5.65;;;;;;;21.75;100.00;100239.22;5006310;28;20029;-74
2023/09/10 03:30:38;;;;;;;9.30;6.22;;;;;;;21.74;100.00;100225.50;5031356;28;20038;-73
2023/09/10 03:33:03;;;;;;;11.27;5.70;;;;;;;21.70;100.00;100214.09;5007903;28;20042;-73
2023/09/10 03:35:29;;;;;;;8.90;5.63;;;;;;;21.70;100.00;100216.94;5038901;28;20072;-73
2023/09/10 03:37:54;;;;;;;7.15;5.88;;;;;;;21.71;100.00;100214.94;5036634;28;20029;-74
2023/09/10 03:40:20;;;;;;;6.00;5.40;;;;;;;21.71;100.00;100214.94;5031025;28;20029;-73
2023/09/10 03:42:45;;;;;;;7.30;5.68;;;;;;;21.68;100.00;100212.88;5053097;28;20052;-73
2023/09/10 03:45:11;;;;;;;8.88;5.50;;;;;;;21.67;100.00;100205.56;5031383;28;20079;-74
2023/09/10 03:47:39;;;;;;;6.45;5.80;;;;;;;21.63;100.00;100183.72;5052017;28;20033;-73
2023/09/10 03:50:05;;;;;;;9.10;5.75;;;;;;;21.62;100.00;100184.13;5038642;28;20112;-73
2023/09/10 03:52:30;;;;;;;9.05;6.00;;;;;;;21.63;100.00;100188.56;5035498;28;20553;-73
2023/09/10 03:54:56;;;;;;;8.30;5.47;;;;;;;21.61;100.00;100191.75;5035318;28;20436;-73
2023/09/10 03:57:21;;;;;;;7.05;5.25;;;;;;;21.58;100.00;100192.50;5028766;28;20040;-73
2023/09/10 03:59:47;;;;;;;7.55;5.50;;;;;;;21.58;100.00;100189.69;5038740;28;20033;-73
2023/09/10 04:02:12;;;;;;;6.55;5.85;;;;;;;21.57;100.00;100195.72;5034897;28;20060;-73
2023/09/10 04:04:38;;;;;;;8.90;5.45;;;;;;;21.56;100.00;100209.03;5015694;28;20041;-73
2023/09/10 04:07:03;;;;;;;10.13;5.72;;;;;;;21.53;100.00;100209.75;5018709;28;20022;-73
2023/09/10 04:09:30;;;;;;;7.43;6.05;;;;;;;21.52;100.00;100210.16;5015870;28;20359;-73
2023/09/10 04:11:57;;;;;;;9.25;5.72;;;;;;;21.48;100.00;100206.44;5024155;28;20030;-73
2023/09/10 04:14:23;;;;;;;5.95;5.28;;;;;;;21.49;100.00;100214.53;5033698;28;20029;-73
2023/09/10 04:16:48;;;;;;;7.13;5.45;;;;;;;21.48;100.00;100204.44;5023170;28;20159;-73
2023/09/10 04:19:14;;;;;;;6.55;5.82;;;;;;;21.50;100.00;100202.03;5050521;28;20051;-73
2023/09/10 04:21:39;;;;;;;7.47;6.10;;;;;;;21.48;100.00;100209.25;5023211;28;20029;-73
2023/09/10 04:24:05;;;;;;;6.28;5.40;;;;;;;21.42;100.00;100212.41;5029877;28;20033;-73
2023/09/10 04:26:31;;;;;;;7.53;6.03;;;;;;;21.42;100.00;100203.94;5003745;28;20575;-73
2023/09/10 04:28:56;;;;;;;8.98;6.00;;;;;;;21.40;100.00;100208.34;5021697;28;20064;-73
2023/09/10 04:31:22;;;;;;;7.20;5.72;;;;;;;21.40;100.00;100216.81;5050944;28;20033;-73
2023/09/10 04:33:47;;;;;;;7.10;5.82;;;;;;;21.39;100.00;100220.81;5041985;28;20053;-73
2023/09/10 04:36:13;;;;;;;7.05;5.60;;;;;;;21.39;100.00;100221.63;5037296;28;20367;-73
2023/09/10 04:38:39;;;;;;;7.35;5.72;;;;;;;21.39;100.00;100213.13;5033419;28;20052;-73
2023/09/10 04:41:04;;;;;;;7.28;6.00;;;;;;;21.37;100.00;100218.38;5038886;28;20029;-73
2023/09/10 04:43:30;;;;;;;8.00;5.60;;;;;;;21.36;100.00;100211.03;5021307;28;20040;-73
2023/09/10 04:45:55;;;;;;;6.63;5.47;;;;;;;21.37;100.00;100226.03;5037781;28;20033;-73
2023/09/10 04:48:21;;;;;;;7.25;6.18;;;;;;;21.36;100.00;100224.34;5020915;28;20029;-73
2023/09/10 04:50:46;;;;;;;6.55;5.85;;;;;;;21.36;100.00;100215.88;5031121;28;20043;-73
2023/09/10 04:53:13;;;;;;;10.38;6.22;;;;;;;21.34;100.00;100206.94;5048881;28;20473;-73
2023/09/10 04:55:38;;;;;;;6.40;5.80;;;;;;;21.39;100.00;100215.16;5023987;28;20033;-73
2023/09/10 04:58:04;;;;;;;6.40;5.80;;;;;;;21.35;100.00;100215.06;5037434;28;20036;-73
2023/09/10 05:00:30;;;;;;;6.85;5.50;;;;;;;21.33;100.00;100213.81;5035207;28;20359;-73
2023/09/10 05:02:55;;;;;;;8.75;6.03;;;;;;;21.34;100.00;100221.06;5037247;28;20037;-73
2023/09/10 05:05:21;;;;;;;7.03;6.20;;;;;;;21.31;100.00;100207.69;5004402;28;20036;-73
2023/09/10 05:07:50;;;;;;;6.93;5.70;;;;;;;21.28;100.00;100203.63;5013466;28;20037;-73
2023/09/10 05:10:15;;;;;;;7.22;6.30;;;;;;;21.28;100.00;100214.91;5010851;28;20032;-73
2023/09/10 05:12:41;;;;;;;10.15;5.68;;;;;;;21.31;100.00;100205.72;5030057;28;20033;-73
2023/09/10 05:15:07;;;;;;;7.07;6.00;;;;;;;21.29;100.00;100202.44;5033793;28;20060;-73
2023/09/10 05:17:33;;;;;;;6.45;5.43;;;;;;;21.25;100.00;100209.19;5020419;28;20070;-73
2023/09/10 05:19:58;;;;;;;8.32;6.13;;;;;;;21.28;100.00;100208.44;5039078;28;20056;-73
2023/09/10 05:22:23;;;;;;;7.82;6.13;;;;;;;21.24;100.00;100205.56;5046031;28;20482;-73
2023/09/10 05:24:49;;;;;;;8.25;6.18;;;;;;;21.22;100.00;100204.31;5020522;28;20034;-73
2023/09/10 05:27:15;;;;;;;6.95;6.00;;;;;;;21.20;100.00;100191.38;5036940;28;20112;-73
2023/09/10 05:29:40;;;;;;;7.70;6.07;;;;;;;21.16;100.00;100207.44;5033656;28;20029;-73
2023/09/10 05:32:06;;;;;;;6.40;5.80;;;;;;;21.15;100.00;100216.28;5019984;28;20029;-74
2023/09/10 05:34:31;;;;;;;7.75;5.90;;;;;;;21.18;100.00;100224.00;5058157;28;20044;-73
2023/09/10 05:36:57;;;;;;;9.25;6.32;;;;;;;21.12;100.00;100229.16;5045931;28;20113;-73
2023/09/10 05:39:22;;;;;;;8.73;6.38;;;;;;;21.14;100.00;100240.84;5036684;28;20522;-73
2023/09/10 05:41:49;;;;;;;6.97;6.10;;;;;;;21.10;100.00;100256.13;5037017;28;20347;-73
2023/09/10 05:44:14;;;;;;;8.07;6.38;;;;;;;21.12;100.00;100245.28;5036579;28;20041;-73
2023/09/10 05:46:40;;;;;;;8.23;5.88;;;;;;;21.10;100.00;100225.88;5019988;28;20029;-73
2023/09/10 05:49:05;;;;;;;8.35;6.63;;;;;;;21.08;100.00;100224.59;5003632;28;20029;-73
2023/09/10 05:51:31;;;;;;;6.80;6.10;;;;;;;21.07;100.00;100222.97;5036722;28;20040;-73
2023/09/10 05:53:56;;;;;;;7.22;6.53;;;;;;;21.07;100.00;100237.91;5024976;28;20033;-73
2023/09/10 05:56:22;;;;;;;6.95;6.20;;;;;;;21.11;100.00;100247.25;5012594;28;20037;-73
2023/09/10 05:58:48;;;;;;;8.15;6.28;;;;;;;21.13;100.00;100247.72;5036316;28;20337;-73
2023/09/10 06:01:13;;;;;;;8.43;6.40;;;;;;;21.12;100.00;100248.91;5019935;28;20457;-73
2023/09/10 06:03:39;;;;;;;7.68;5.93;;;;;;;21.14;100.00;100254.97;5016488;28;20029;-73
2023/09/10 06:06:04;;;;;;;8.82;6.20;;;;;;;21.18;100.00;100255.88;5030680;28;20028;-73
2023/09/10 06:08:31;;;;;;;6.50;5.78;;;;;;;21.20;100.00;100272.44;5043693;28;20107;-73
2023/09/10 06:10:56;;;;;;;8.27;6.50;;;;;;;21.20;100.00;100281.75;5055533;28;20057;-73
2023/09/10 06:13:22;;;;;;;10.82;6.65;;;;;;;21.25;100.00;100279.81;5035626;28;20033;-73
2023/09/10 06:15:47;;;;;;;7.35;6.07;;;;;;;21.26;100.00;100275.81;5036290;28;20044;-73
2023/09/10 06:18:12;;;;;;;8.77;6.68;;;;;;;21.28;100.00;100270.59;5023961;28;20033;-73
2023/09/10 06:20:38;;;;;;;6.82;6.13;;;;;;;21.30;100.00;100257.72;5046696;28;20033;-73
2023/09/10 06:23:03;;;;;;;8.02;6.13;;;;;;;21.35;100.00;100257.44;5009398;28;20043;-73
2023/09/10 06:25:29;;;;;;;8.18;6.20;;;;;;;21.34;100.00;100250.16;5066309;28;20036;-73
2023/09/10 06:27:54;;;;;;;7.88;6.40;;;;;;;21.38;100.00;100247.44;5022682;28;20040;-73
2023/09/10 06:30:20;;;;;;;8.95;6.40;;;;;;;21.39;100.00;100246.22;5046313;28;20034;-73
2023/09/10 06:32:48;;;;;;;7.70;6.35;;;;;;;21.42;100.00;100237.00;5019133;28;20060;-73
2023/09/10 06:35:14;;;;;;;8.35;6.10;;;;;;;21.45;100.00;100227.78;5037352;28;20036;-73
2023/09/10 06:37:39;;;;;;;7.22;5.95;;;;;;;21.50;100.00;100250.06;5022727;28;20086;-73
2023/09/10 06:40:05;;;;;;;6.97;5.97;;;;;;;21.52;100.00;100258.19;5012820;28;20026;-73
2023/09/10 06:42:31;;;;;;;7.22;6.53;;;;;;;21.51;100.00;100246.06;5049530;28;20025;-73
2023/09/10 06:44:56;;;;;;;6.80;6.10;;;;;;;21.53;100.00;100237.22;5019717;28;20033;-73
2023/09/10 06:47:22;;;;;;;6.95;6.25;;;;;;;21.56;100.00;100264.72;5057004;28;20063;-73
2023/09/10 06:49:47;;;;;;;9.00;7.00;;;;;;;21.61;100.00;100270.06;5065707;28;20033;-73
2023/09/10 06:52:13;;;;;;;7.55;6.60;;;;;;;21.58;100.00;100285.75;5035750;28;20088;-73
2023/09/10 06:54:38;;;;;;;8.38;6.68;;;;;;;21.63;100.00;100293.94;5046406;28;20032;-73
2023/09/10 06:57:04;;;;;;;7.72;6.18;;;;;;;21.65;100.00;100302.03;5018976;28;20029;-73
2023/09/10 06:59:29;;;;;;;8.75;6.35;;;;;;;21.66;100.00;100314.16;5025999;28;20033;-73
2023/09/10 07:01:55;;;;;;;9.60;6.82;;;;;;;21.68;100.00;100294.81;5005675;28;20025;-73
2023/09/10 07:04:21;;;;;;;8.73;6.80;;;;;;;21.64;100.00;100294.75;5026103;28;20033;-73
2023/09/10 07:06:47;;;;;;;9.38;6.72;;;;;;;21.60;100.00;100283.38;5049118;28;20026;-73
2023/09/10 07:09:13;;;;;;;8.63;6.70;;;;;;;21.60;100.00;100280.53;4986512;28;20032;-73
2023/09/10 07:11:39;;;;;;;8.02;6.47;;;;;;;21.58;100.00;100274.44;5040875;28;20073;-73
2023/09/10 07:14:04;;;;;;;8.40;7.30;;;;;;;21.59;100.00;100275.25;5032346;28;20020;-73
2023/09/10 07:16:30;;;;;;;10.75;6.63;;;;;;;21.56;100.00;100267.53;5029114;28;20115;-73
2023/09/10 07:18:55;;;;;;;7.68;6.88;;;;;;;21.56;100.00;100270.34;5031349;28;20029;-73
2023/09/10 07:21:21;;;;;;;8.45;6.63;;;;;;;21.57;100.00;100270.00;5022746;28;20026;-73
2023/09/10 07:23:46;;;;;;;8.20;7.20;;;;;;;21.57;100.00;100261.53;5017308;28;20505;-73
2023/09/10 07:26:12;;;;;;;10.98;6.97;;;;;;;21.57;100.00;100266.34;5047908;28;20026;-73
2023/09/10 07:28:37;;;;;;;10.55;6.53;;;;;;;21.62;100.00;100272.53;5070324;28;20401;-73
2023/09/10 07:31:02;;;;;;;10.23;6.32;;;;;;;21.66;100.00;100275.41;5043253;28;20037;-73
2023/09/10 07:33:28;;;;;;;8.18;6.47;;;;;;;21.70;100.00;100281.13;5038861;28;20405;-73
2023/09/10 07:35:54;;;;;;;8.63;6.78;;;;;;;21.75;100.00;100300.59;5043186;28;20029;-73
2023/09/10 07:38:19;;;;;;;9.57;7.20;;;;;;;21.81;100.00;100299.94;5039030;28;20064;-73
2023/09/10 07:40:45;;;;;;;7.72;6.93;;;;;;;21.88;100.00;100309.72;5038974;28;20170;-73
2023/09/10 07:43:10;;;;;;;9.68;7.43;;;;;;;21.94;100.00;100294.91;5011833;28;20029;-73
2023/09/10 07:45:36;;;;;;;8.10;6.82;;;;;;;22.03;100.00;100294.63;5020671;28;20075;-73
2023/09/10 07:48:01;;;;;;;7.82;6.55;;;;;;;22.10;100.00;100294.78;5050971;28;20035;-73
2023/09/10 07:50:30;;;;;;;7.63;6.65;;;;;;;22.20;100.00;100296.97;5043584;28;20489;-73
2023/09/10 07:52:55;;;;;;;7.72;6.72;;;;;;;22.30;100.00;100281.41;5038859;28;20041;-73
2023/09/10 07:55:21;;;;;;;9.35;6.82;;;;;;;22.39;100.00;100279.13;5035354;28;20474;-73
2023/09/10 07:57:47;;;;;;;8.80;6.93;;;;;;;22.51;100.00;100278.06;5028303;28;20033;-73
2023/09/10 08:00:13;;;;;;;9.32;7.63;;;;;;;22.61;100.00;100277.44;5035200;28;20029;-73
2023/09/10 08:02:39;;;;;;;8.23;6.97;;;;;;;22.71;100.00;100273.13;5021636;28;20036;-73
2023/09/10 08:05:05;;;;;;;8.95;6.57;;;;;;;22.80;100.00;100276.50;5038640;28;20033;-73
2023/09/10 08:07:31;;;;;;;10.00;6.18;;;;;;;22.88;100.00;100278.22;5012625;28;20060;-73
2023/09/10 08:09:57;;;;;;;8.70;6.82;;;;;;;23.00;100.00;100296.22;5051399;28;20420;-73
2023/09/10 08:12:22;;;;;;;8.35;6.88;;;;;;;23.13;100.00;100291.94;5010342;28;20033;-73
2023/09/10 08:14:48;;;;;;;7.32;6.03;;;;;;;23.23;100.00;100291.25;5038168;28;20029;-73
2023/09/10 08:17:14;;;;;;;8.88;6.75;;;;;;;23.37;100.00;100296.28;5021469;28;20037;-73
2023/09/10 08:19:39;;;;;;;10.68;7.25;;;;;;;23.55;100.00;100293.66;5052032;28;20028;-73
2023/09/10 08:22:04;;;;;;;7.95;6.35;;;;;;;23.74;100.00;100290.66;5026850;28;20083;-73
2023/09/10 08:24:30;;;;;;;9.45;5.97;;;;;;;23.90;100.00;100286.75;5007000;28;20030;-73
2023/09/10 08:26:57;;;;;;;7.07;6.35;;;;;;;24.09;100.00;100273.16;5031446;28;20044;-72
2023/09/10 08:29:23;;;;;;;9.32;6.05;;;;;;;24.31;100.00;100271.31;5036103;28;20056;-73
2023/09/10 08:31:48;;;;;;;11.77;8.10;;;;;;;24.51;100.00;100273.91;5032124;28;20026;-73
2023/09/10 08:34:14;;;;;;;12.18;9.27;;;;;;;24.71;100.00;100275.28;5023587;28;20041;-73
2023/09/10 08:36:39;;;;;;;12.27;7.38;;;;;;;24.92;100.00;100280.25;5048671;28;20029;-73
2023/09/10 08:39:05;;;;;;;8.93;6.82;;;;;;;25.15;100.00;100290.56;5021216;28;20025;-73
2023/09/10 08:41:57;;;;;;;8.52;6.18;;;;;;;25.41;100.00;100289.47;5021322;28;20080;-73
2023/09/10 08:44:23;;;;;;;9.63;7.15;;;;;;;25.63;100.00;100291.16;5021100;28;20025;-74
2023/09/10 08:46:49;;;;;;;13.30;7.07;;;;;;;25.83;100.00;100290.81;5030120;28;20033;-73
2023/09/10 08:49:14;;;;;;;13.02;8.38;;;;;;;25.96;100.00;100279.84;5017759;28;20064;-73
2023/09/10 08:51:40;;;;;;;11.93;8.35;;;;;;;26.12;100.00;100290.84;5005113;28;20079;-72
2023/09/10 08:54:05;;;;;;;10.82;7.18;;;;;;;26.31;100.00;100279.06;5040271;28;20037;-73
2023/09/10 08:56:31;;;;;;;8.60;7.05;;;;;;;26.45;100.00;100273.34;5030215;28;20025;-73
2023/09/10 08:58:57;;;;;;;10.35;6.95;;;;;;;26.60;100.00;100284.75;5032471;28;20054;-73
2023/09/10 09:01:23;;;;;;;8.48;6.70;;;;;;;26.73;100.00;100288.78;5043986;28;20462;-73
2023/09/10 09:03:49;;;;;;;11.40;6.55;;;;;;;26.82;100.00;100280.63;5016796;28;20041;-73
2023/09/10 09:06:15;;;;;;;9.10;6.88;;;;;;;26.89;100.00;100274.13;5037578;28;20032;-73
2023/09/10 09:08:40;;;;;;;13.40;7.18;;;;;;;26.91;100.00;100275.31;5017457;28;20026;-73
2023/09/10 09:11:07;;;;;;;9.00;6.43;;;;;;;26.96;100.00;100283.44;4989934;28;20083;-73
2023/09/10 09:13:35;;;;;;;12.90;6.93;;;;;;;27.04;100.00;100280.56;5001151;28;20036;-73
2023/09/10 09:16:01;;;;;;;9.55;6.75;;;;;;;27.05;100.00;100285.88;5042799;28;20025;-73
2023/09/10 09:18:27;;;;;;;13.32;7.20;;;;;;;27.06;100.00;100281.78;5019134;28;20037;-73
2023/09/10 09:20:52;;;;;;;11.27;6.78;;;;;;;27.10;100.00;100285.41;5029134;28;20025;-73
2023/09/10 09:23:30;;;;;;;10.45;6.82;;;;;;;27.13;100.00;100284.59;5017209;28;20033;-73
2023/09/10 09:25:56;;;;;;;9.50;6.35;;;;;;;27.16;100.00;100291.53;5015964;28;20038;-73
2023/09/10 09:28:22;;;;;;;9.93;6.95;;;;;;;27.09;100.00;100295.22;5020497;28;20030;-73
2023/09/10 09:30:47;;;;;;;11.30;7.10;;;;;;;27.12;100.00;100299.28;5049945;28;20037;-73
2023/09/10 09:33:13;;;;;;;10.30;7.15;;;;;;;27.12;100.00;100300.06;5026451;28;20056;-73
2023/09/10 09:35:38;;;;;;;9.70;7.00;;;;;;;27.13;100.00;100312.28;5059389;28;20036;-73
2023/09/10 09:38:10;;;;;;;11.13;6.45;;;;;;;27.09;100.00;100309.47;5019613;28;20041;-73
2023/09/10 09:40:36;;;;;;;7.95;6.30;;;;;;;27.06;100.00;100315.97;5032699;28;20021;-73
2023/09/10 09:43:05;;;;;;;9.77;6.70;;;;;;;27.04;100.00;100321.28;5036774;28;20033;-73
2023/09/10 09:45:31;;;;;;;8.52;6.57;;;;;;;27.00;100.00;100333.94;5020302;28;20175;-73
2023/09/10 09:47:56;;;;;;;9.18;6.70;;;;;;;26.95;100.00;100358.75;5028624;28;20040;-73
2023/09/10 09:50:24;;;;;;;7.60;6.47;;;;;;;26.88;100.00;100389.28;5005550;28;20025;-73
2023/09/10 09:52:54;;;;;;;6.80;6.05;;;;;;;26.77;100.00;100403.53;5030686;28;20026;-73
2023/09/10 09:55:20;;;;;;;10.15;6.60;;;;;;;26.64;100.00;100425.94;5019716;28;20029;-73
2023/09/10 09:57:48;;;;;;;9.73;6.65;;;;;;;26.56;100.00;100446.25;5003165;28;20028;-73
2023/09/10 10:00:14;;;;;;;8.15;7.03;;;;;;;26.50;100.00;100468.59;5016794;28;20034;-73
2023/09/10 10:02:39;;;;;;;11.15;7.25;;;;;;;26.39;100.00;100470.63;5046843;28;20511;-73
2023/09/10 10:05:06;;;;;;;11.00;8.32;;;;;;;26.27;100.00;100466.09;5005896;28;20107;-73
2023/09/10 10:10:07;;;;;;;11.25;7.65;;;;;;;26.04;100.00;100435.94;5179643;22;20062;-71
2023/09/10 10:12:33;;;;;;;8.27;7.40;;;;;;;25.94;100.00;100436.75;4977959;28;20436;-71
2023/09/10 10:14:59;;;;;;;9.65;8.02;;;;;;;25.82;100.00;100435.00;4966162;28;20037;-71
2023/09/10 10:17:25;;;;;;;12.43;7.60;;;;;;;25.73;100.00;100442.31;4991483;28;20093;-71
2023/09/10 10:19:50;;;;;;;10.38;7.60;;;;;;;25.59;100.00;100465.78;4982998;28;20080;-71
2023/09/10 10:22:16;;;;;;;10.43;6.75;;;;;;;25.48;100.00;100470.59;4983396;28;20030;-71
2023/09/10 10:24:41;;;;;;;9.93;7.32;;;;;;;25.41;100.00;100457.16;4985216;28;20033;-72
2023/09/10 10:27:07;;;;;;;14.25;7.10;;;;;;;25.28;100.00;100444.50;4997067;28;20129;-71
2023/09/10 10:29:32;;;;;;;11.82;6.57;;;;;;;25.15;100.00;100449.69;4976844;28;20089;-71
2023/09/10 10:32:03;;;;;;;8.27;6.43;;;;;;;25.06;100.00;100458.50;4998834;28;20037;-71
2023/09/10 10:34:34;;;;;;;12.13;6.40;;;;;;;24.94;100.00;100465.31;4967744;28;20022;-71
2023/09/10 10:37:24;;;;;;;9.93;6.70;;;;;;;24.88;100.00;100464.06;4994211;28;20034;-71
2023/09/10 10:39:54;;;;;;;11.48;6.00;;;;;;;24.82;100.00;100459.13;5007317;28;20084;-71
2023/09/10 10:42:32;;;;;;;11.57;6.15;;;;;;;24.72;100.00;100463.50;5021282;28;20033;-71
2023/09/10 10:44:58;;;;;;;11.02;5.95;;;;;;;24.66;100.00;100465.91;4998010;28;20069;-71
2023/09/10 10:47:23;;;;;;;10.57;6.25;;;;;;;24.61;100.00;100463.41;5015632;28;20041;-71
2023/09/10 10:49:53;;;;;;;9.07;6.18;;;;;;;24.55;100.00;100445.09;4985244;28;20030;-71
2023/09/10 10:52:30;;;;;;;9.18;6.45;;;;;;;24.50;100.00;100446.25;5003286;28;20026;-71
2023/09/10 10:54:55;;;;;;;9.52;6.03;;;;;;;24.49;100.00;100426.81;4984132;28;20042;-71
2023/09/10 10:57:21;;;;;;;11.35;6.28;;;;;;;24.45;100.00;100414.59;5019652;28;20034;-71
2023/09/10 10:59:47;;;;;;;9.05;6.03;;;;;;;24.42;100.00;100396.28;5019262;28;20134;-71
2023/09/10 11:02:23;;;;;;;10.60;6.70;;;;;;;24.46;100.00;100390.66;5003098;28;20034;-71
2023/09/10 11:05:06;;;;;;;8.10;6.20;;;;;;;24.50;100.00;100385.84;5001528;28;20031;-71
2023/09/10 11:07:31;;;;;;;9.05;6.03;;;;;;;24.50;100.00;100386.66;5000153;28;20038;-71
2023/09/10 11:10:16;;;;;;;11.15;6.75;;;;;;;24.54;100.00;100389.50;4984916;28;20434;-71
2023/09/10 11:13:08;;;;;;;11.45;7.03;;;;;;;24.62;100.00;100379.03;5005378;28;20036;-71
2023/09/10 11:15:34;;;;;;;10.35;7.00;;;;;;;24.72;100.00;100366.97;5004627;28;20042;-71